Golden Valley, Nevada
Current Conditions -  °F | °C
As of 4:15 AM on Sunday 23 Nov 2014 (Local Time) from KRTS Reporting Station
Clear Clear  
Wind Chill: 18°   Ceiling: Unl
Heat Index: 27°   Visibility: 10mi
Dew Point: 23°   Wind: 8mph
Humidity: 86%   Direction: 310°NW
Pressure: 30.33"   Gusts: NA
Location:  39.7378°N, 119.889°W
Report Text: KRTS 231215Z AUTO 31007KT 10SM CLR M03/M05 A3033 RMK AO2
Loading
Personal Weather Stations






























Interactive Weather Map New forecast layout! Learn more

10-Day Weather Forecast

Advertisements
Track Severe Weather on mobile